sensor_id;sensor_type;location;lat;lon;timestamp;pressure;altitude;pressure_sealevel;temperature
67822;BMP180;54434;50.096;20.082;2023-02-19T00:01:58;98519.20;;;6.90
67822;BMP180;54434;50.096;20.082;2023-02-19T00:04:35;98520.80;;;6.90
67822;BMP180;54434;50.096;20.082;2023-02-19T00:07:11;98523.40;;;6.80
67822;BMP180;54434;50.096;20.082;2023-02-19T00:09:48;98522.00;;;6.80
67822;BMP180;54434;50.096;20.082;2023-02-19T00:12:25;98524.80;;;6.70
67822;BMP180;54434;50.096;20.082;2023-02-19T00:15:02;98511.40;;;6.70
67822;BMP180;54434;50.096;20.082;2023-02-19T00:17:39;98509.00;;;6.64
67822;BMP180;54434;50.096;20.082;2023-02-19T00:20:16;98501.60;;;6.60
67822;BMP180;54434;50.096;20.082;2023-02-19T00:22:53;98497.00;;;6.60
67822;BMP180;54434;50.096;20.082;2023-02-19T00:25:30;98496.80;;;6.60
67822;BMP180;54434;50.096;20.082;2023-02-19T00:28:07;98508.00;;;6.50
67822;BMP180;54434;50.096;20.082;2023-02-19T00:30:44;98504.60;;;6.50
67822;BMP180;54434;50.096;20.082;2023-02-19T00:33:20;98512.20;;;6.50
67822;BMP180;54434;50.096;20.082;2023-02-19T00:36:00;98513.00;;;6.50
67822;BMP180;54434;50.096;20.082;2023-02-19T00:38:39;98511.20;;;6.50
67822;BMP180;54434;50.096;20.082;2023-02-19T00:41:18;98500.60;;;6.50
67822;BMP180;54434;50.096;20.082;2023-02-19T00:43:57;98495.60;;;6.50
67822;BMP180;54434;50.096;20.082;2023-02-19T00:46:38;98491.20;;;6.50
67822;BMP180;54434;50.096;20.082;2023-02-19T00:49:21;98490.00;;;6.50
67822;BMP180;54434;50.096;20.082;2023-02-19T00:51:58;98495.60;;;6.50
67822;BMP180;54434;50.096;20.082;2023-02-19T00:54:35;98488.40;;;6.50
67822;BMP180;54434;50.096;20.082;2023-02-19T00:57:11;98489.00;;;6.42
67822;BMP180;54434;50.096;20.082;2023-02-19T00:59:47;98488.40;;;6.40
67822;BMP180;54434;50.096;20.082;2023-02-19T01:02:24;98481.20;;;6.40
67822;BMP180;54434;50.096;20.082;2023-02-19T01:05:02;98479.40;;;6.40
67822;BMP180;54434;50.096;20.082;2023-02-19T01:07:40;98479.80;;;6.40
67822;BMP180;54434;50.096;20.082;2023-02-19T01:10:17;98481.00;;;6.40
67822;BMP180;54434;50.096;20.082;2023-02-19T01:12:53;98484.40;;;6.40
67822;BMP180;54434;50.096;20.082;2023-02-19T01:15:29;98479.40;;;6.40
67822;BMP180;54434;50.096;20.082;2023-02-19T01:18:08;98478.80;;;6.40
67822;BMP180;54434;50.096;20.082;2023-02-19T01:20:46;98477.20;;;6.40
67822;BMP180;54434;50.096;20.082;2023-02-19T01:23:23;98467.60;;;6.40
67822;BMP180;54434;50.096;20.082;2023-02-19T01:25:59;98467.00;;;6.40
67822;BMP180;54434;50.096;20.082;2023-02-19T01:28:38;98463.60;;;6.40
67822;BMP180;54434;50.096;20.082;2023-02-19T01:31:19;98462.20;;;6.40
67822;BMP180;54434;50.096;20.082;2023-02-19T01:34:01;98466.40;;;6.40
67822;BMP180;54434;50.096;20.082;2023-02-19T01:36:38;98456.20;;;6.40
67822;BMP180;54434;50.096;20.082;2023-02-19T01:39:15;98458.60;;;6.40
67822;BMP180;54434;50.096;20.082;2023-02-19T01:41:51;98461.00;;;6.40
67822;BMP180;54434;50.096;20.082;2023-02-19T01:45:22;98463.60;;;6.38
67822;BMP180;54434;50.096;20.082;2023-02-19T01:48:08;98464.60;;;6.40
67822;BMP180;54434;50.096;20.082;2023-02-19T01:50:51;98458.80;;;6.40
67822;BMP180;54434;50.096;20.082;2023-02-19T01:53:35;98462.00;;;6.32
67822;BMP180;54434;50.096;20.082;2023-02-19T01:56:13;98461.80;;;6.34
67822;BMP180;54434;50.096;20.082;2023-02-19T01:58:51;98458.20;;;6.40
67822;BMP180;54434;50.096;20.082;2023-02-19T02:01:28;98457.60;;;6.40
67822;BMP180;54434;50.096;20.082;2023-02-19T02:04:07;98462.40;;;6.38
67822;BMP180;54434;50.096;20.082;2023-02-19T02:06:51;98455.60;;;6.36
67822;BMP180;54434;50.096;20.082;2023-02-19T02:09:31;98459.20;;;6.32
67822;BMP180;54434;50.096;20.082;2023-02-19T02:12:25;98460.00;;;6.30
67822;BMP180;54434;50.096;20.082;2023-02-19T02:15:02;98462.40;;;6.30
67822;BMP180;54434;50.096;20.082;2023-02-19T02:17:50;98464.20;;;6.30
67822;BMP180;54434;50.096;20.082;2023-02-19T02:21:03;98464.60;;;6.30
67822;BMP180;54434;50.096;20.082;2023-02-19T02:24:09;98463.40;;;6.30
67822;BMP180;54434;50.096;20.082;2023-02-19T02:27:11;98464.40;;;6.30
67822;BMP180;54434;50.096;20.082;2023-02-19T02:30:38;98469.00;;;6.30
67822;BMP180;54434;50.096;20.082;2023-02-19T02:33:30;98470.80;;;6.30
67822;BMP180;54434;50.096;20.082;2023-02-19T02:36:09;98465.80;;;6.30
67822;BMP180;54434;50.096;20.082;2023-02-19T02:38:49;98470.60;;;6.30
67822;BMP180;54434;50.096;20.082;2023-02-19T02:41:28;98471.20;;;6.30
67822;BMP180;54434;50.096;20.082;2023-02-19T02:44:05;98472.60;;;6.30
67822;BMP180;54434;50.096;20.082;2023-02-19T02:46:47;98469.00;;;6.30
67822;BMP180;54434;50.096;20.082;2023-02-19T02:49:26;98462.00;;;6.30
67822;BMP180;54434;50.096;20.082;2023-02-19T02:52:04;98461.00;;;6.30
67822;BMP180;54434;50.096;20.082;2023-02-19T02:55:00;98451.00;;;6.30
67822;BMP180;54434;50.096;20.082;2023-02-19T02:57:40;98451.20;;;6.30
67822;BMP180;54434;50.096;20.082;2023-02-19T03:00:18;98452.20;;;6.30
67822;BMP180;54434;50.096;20.082;2023-02-19T03:02:56;98454.80;;;6.30
67822;BMP180;54434;50.096;20.082;2023-02-19T03:05:33;98446.60;;;6.30
67822;BMP180;54434;50.096;20.082;2023-02-19T03:08:34;98448.00;;;6.20
67822;BMP180;54434;50.096;20.082;2023-02-19T03:11:14;98443.60;;;6.20
67822;BMP180;54434;50.096;20.082;2023-02-19T03:14:17;98447.40;;;6.20
67822;BMP180;54434;50.096;20.082;2023-02-19T03:17:17;98452.40;;;6.20
67822;BMP180;54434;50.096;20.082;2023-02-19T03:20:20;98450.20;;;6.20
67822;BMP180;54434;50.096;20.082;2023-02-19T03:22:59;98446.40;;;6.20
67822;BMP180;54434;50.096;20.082;2023-02-19T03:25:40;98444.00;;;6.20
67822;BMP180;54434;50.096;20.082;2023-02-19T03:28:46;98436.80;;;6.20
67822;BMP180;54434;50.096;20.082;2023-02-19T03:31:56;98435.60;;;6.18
67822;BMP180;54434;50.096;20.082;2023-02-19T03:34:40;98435.20;;;6.16
67822;BMP180;54434;50.096;20.082;2023-02-19T03:37:26;98429.60;;;6.16
67822;BMP180;54434;50.096;20.082;2023-02-19T03:40:06;98426.20;;;6.10
67822;BMP180;54434;50.096;20.082;2023-02-19T03:42:55;98423.20;;;6.10
67822;BMP180;54434;50.096;20.082;2023-02-19T03:45:57;98423.00;;;6.10
67822;BMP180;54434;50.096;20.082;2023-02-19T03:48:49;98418.20;;;6.10
67822;BMP180;54434;50.096;20.082;2023-02-19T03:51:37;98405.60;;;6.10
67822;BMP180;54434;50.096;20.082;2023-02-19T03:54:21;98405.80;;;6.10
67822;BMP180;54434;50.096;20.082;2023-02-19T03:57:13;98406.60;;;6.10
67822;BMP180;54434;50.096;20.082;2023-02-19T03:59:58;98406.20;;;6.10
67822;BMP180;54434;50.096;20.082;2023-02-19T04:02:55;98407.80;;;6.10
67822;BMP180;54434;50.096;20.082;2023-02-19T04:05:38;98407.00;;;6.10
67822;BMP180;54434;50.096;20.082;2023-02-19T04:08:22;98406.80;;;6.10
67822;BMP180;54434;50.096;20.082;2023-02-19T04:11:06;98406.80;;;6.10
67822;BMP180;54434;50.096;20.082;2023-02-19T04:13:53;98398.60;;;6.10
67822;BMP180;54434;50.096;20.082;2023-02-19T04:16:34;98397.40;;;6.10
67822;BMP180;54434;50.096;20.082;2023-02-19T04:19:16;98395.60;;;6.10
67822;BMP180;54434;50.096;20.082;2023-02-19T04:21:56;98392.80;;;6.08
67822;BMP180;54434;50.096;20.082;2023-02-19T04:24:39;98386.80;;;6.10
67822;BMP180;54434;50.096;20.082;2023-02-19T04:27:17;98380.80;;;6.10
67822;BMP180;54434;50.096;20.082;2023-02-19T04:29:53;98377.40;;;6.04
67822;BMP180;54434;50.096;20.082;2023-02-19T04:32:30;98365.60;;;6.00
67822;BMP180;54434;50.096;20.082;2023-02-19T04:35:07;98355.80;;;6.00
67822;BMP180;54434;50.096;20.082;2023-02-19T04:37:43;98361.40;;;6.00
67822;BMP180;54434;50.096;20.082;2023-02-19T04:40:20;98357.80;;;6.00
67822;BMP180;54434;50.096;20.082;2023-02-19T04:42:57;98354.80;;;6.00
67822;BMP180;54434;50.096;20.082;2023-02-19T04:45:34;98347.60;;;6.00
67822;BMP180;54434;50.096;20.082;2023-02-19T04:48:12;98351.60;;;6.00
67822;BMP180;54434;50.096;20.082;2023-02-19T04:50:48;98354.00;;;5.98
67822;BMP180;54434;50.096;20.082;2023-02-19T04:53:25;98362.80;;;6.00
67822;BMP180;54434;50.096;20.082;2023-02-19T04:56:08;98363.20;;;5.94
67822;BMP180;54434;50.096;20.082;2023-02-19T04:58:46;98362.60;;;5.92
67822;BMP180;54434;50.096;20.082;2023-02-19T05:01:23;98362.80;;;5.96
67822;BMP180;54434;50.096;20.082;2023-02-19T05:03:59;98365.60;;;6.00
67822;BMP180;54434;50.096;20.082;2023-02-19T05:06:36;98361.00;;;6.00
67822;BMP180;54434;50.096;20.082;2023-02-19T05:09:12;98366.20;;;6.00
67822;BMP180;54434;50.096;20.082;2023-02-19T05:11:48;98361.00;;;6.00
67822;BMP180;54434;50.096;20.082;2023-02-19T05:14:25;98357.00;;;6.00
67822;BMP180;54434;50.096;20.082;2023-02-19T05:17:01;98355.20;;;6.00
67822;BMP180;54434;50.096;20.082;2023-02-19T05:19:38;98352.00;;;6.00
67822;BMP180;54434;50.096;20.082;2023-02-19T05:22:14;98344.60;;;6.00
67822;BMP180;54434;50.096;20.082;2023-02-19T05:24:51;98345.80;;;6.00
67822;BMP180;54434;50.096;20.082;2023-02-19T05:27:27;98345.20;;;6.00
67822;BMP180;54434;50.096;20.082;2023-02-19T05:30:07;98340.80;;;6.00
67822;BMP180;54434;50.096;20.082;2023-02-19T05:32:43;98333.20;;;6.00
67822;BMP180;54434;50.096;20.082;2023-02-19T05:35:20;98329.20;;;6.00
67822;BMP180;54434;50.096;20.082;2023-02-19T05:37:56;98329.40;;;6.00
67822;BMP180;54434;50.096;20.082;2023-02-19T05:40:33;98333.00;;;6.00
67822;BMP180;54434;50.096;20.082;2023-02-19T05:43:11;98332.80;;;6.00
67822;BMP180;54434;50.096;20.082;2023-02-19T05:45:47;98323.20;;;6.00
67822;BMP180;54434;50.096;20.082;2023-02-19T05:48:24;98323.80;;;6.00
67822;BMP180;54434;50.096;20.082;2023-02-19T05:51:08;98312.20;;;6.00
67822;BMP180;54434;50.096;20.082;2023-02-19T05:53:47;98309.60;;;5.92
67822;BMP180;54434;50.096;20.082;2023-02-19T05:56:32;98312.40;;;5.98
67822;BMP180;54434;50.096;20.082;2023-02-19T05:59:18;98308.80;;;6.00
67822;BMP180;54434;50.096;20.082;2023-02-19T06:01:56;98306.00;;;6.00
67822;BMP180;54434;50.096;20.082;2023-02-19T06:04:32;98313.80;;;6.00
67822;BMP180;54434;50.096;20.082;2023-02-19T06:07:09;98323.00;;;6.00
67822;BMP180;54434;50.096;20.082;2023-02-19T06:09:50;98324.00;;;6.00
67822;BMP180;54434;50.096;20.082;2023-02-19T06:12:26;98321.80;;;6.00
67822;BMP180;54434;50.096;20.082;2023-02-19T06:15:04;98326.20;;;6.00
67822;BMP180;54434;50.096;20.082;2023-02-19T06:17:41;98324.40;;;6.00
67822;BMP180;54434;50.096;20.082;2023-02-19T06:20:17;98310.80;;;6.00
67822;BMP180;54434;50.096;20.082;2023-02-19T06:22:54;98314.00;;;6.06
67822;BMP180;54434;50.096;20.082;2023-02-19T06:25:31;98309.20;;;6.10
67822;BMP180;54434;50.096;20.082;2023-02-19T06:28:07;98295.80;;;6.10
67822;BMP180;54434;50.096;20.082;2023-02-19T06:30:44;98299.00;;;6.10
67822;BMP180;54434;50.096;20.082;2023-02-19T06:33:20;98295.20;;;6.10
67822;BMP180;54434;50.096;20.082;2023-02-19T06:36:00;98302.20;;;6.18
67822;BMP180;54434;50.096;20.082;2023-02-19T06:38:37;98300.60;;;6.20
67822;BMP180;54434;50.096;20.082;2023-02-19T06:41:14;98297.40;;;6.20
67822;BMP180;54434;50.096;20.082;2023-02-19T06:43:50;98301.20;;;6.20
67822;BMP180;54434;50.096;20.082;2023-02-19T06:46:27;98311.60;;;6.20
67822;BMP180;54434;50.096;20.082;2023-02-19T06:49:05;98315.60;;;6.28
67822;BMP180;54434;50.096;20.082;2023-02-19T06:51:42;98319.80;;;6.30
67822;BMP180;54434;50.096;20.082;2023-02-19T06:54:18;98319.80;;;6.30
67822;BMP180;54434;50.096;20.082;2023-02-19T06:56:55;98317.00;;;6.30
67822;BMP180;54434;50.096;20.082;2023-02-19T06:59:33;98314.80;;;6.30
67822;BMP180;54434;50.096;20.082;2023-02-19T07:02:11;98313.80;;;6.30
67822;BMP180;54434;50.096;20.082;2023-02-19T07:04:49;98316.40;;;6.30
67822;BMP180;54434;50.096;20.082;2023-02-19T07:07:25;98310.40;;;6.30
67822;BMP180;54434;50.096;20.082;2023-02-19T07:10:02;98307.60;;;6.30
67822;BMP180;54434;50.096;20.082;2023-02-19T07:12:39;98301.00;;;6.32
67822;BMP180;54434;50.096;20.082;2023-02-19T07:15:15;98301.00;;;6.40
67822;BMP180;54434;50.096;20.082;2023-02-19T07:17:52;98301.80;;;6.40
67822;BMP180;54434;50.096;20.082;2023-02-19T07:20:28;98300.80;;;6.40
67822;BMP180;54434;50.096;20.082;2023-02-19T07:23:05;98302.40;;;6.50
67822;BMP180;54434;50.096;20.082;2023-02-19T07:25:43;98303.40;;;6.50
67822;BMP180;54434;50.096;20.082;2023-02-19T07:28:19;98295.40;;;6.60
67822;BMP180;54434;50.096;20.082;2023-02-19T07:31:00;98286.60;;;6.60
67822;BMP180;54434;50.096;20.082;2023-02-19T07:33:37;98285.40;;;6.70
67822;BMP180;54434;50.096;20.082;2023-02-19T07:36:15;98287.20;;;6.80
67822;BMP180;54434;50.096;20.082;2023-02-19T07:38:59;98287.80;;;6.88
67822;BMP180;54434;50.096;20.082;2023-02-19T07:41:35;98291.00;;;6.98
67822;BMP180;54434;50.096;20.082;2023-02-19T07:44:13;98300.20;;;7.00
67822;BMP180;54434;50.096;20.082;2023-02-19T07:46:50;98297.80;;;7.10
67822;BMP180;54434;50.096;20.082;2023-02-19T07:49:27;98296.40;;;7.20
67822;BMP180;54434;50.096;20.082;2023-02-19T07:52:04;98292.80;;;7.30
67822;BMP180;54434;50.096;20.082;2023-02-19T07:54:41;98287.40;;;7.30
67822;BMP180;54434;50.096;20.082;2023-02-19T07:57:17;98293.00;;;7.40
67822;BMP180;54434;50.096;20.082;2023-02-19T07:59:56;98289.00;;;7.50
67822;BMP180;54434;50.096;20.082;2023-02-19T08:02:32;98288.80;;;7.60
67822;BMP180;54434;50.096;20.082;2023-02-19T08:05:23;98290.80;;;7.60
67822;BMP180;54434;50.096;20.082;2023-02-19T08:08:00;98285.60;;;7.60
67822;BMP180;54434;50.096;20.082;2023-02-19T08:10:37;98289.60;;;7.60
67822;BMP180;54434;50.096;20.082;2023-02-19T08:13:32;98286.20;;;7.60
67822;BMP180;54434;50.096;20.082;2023-02-19T08:16:17;98281.00;;;7.64
67822;BMP180;54434;50.096;20.082;2023-02-19T08:19:13;98274.20;;;7.70
67822;BMP180;54434;50.096;20.082;2023-02-19T08:21:49;98271.20;;;7.70
67822;BMP180;54434;50.096;20.082;2023-02-19T08:24:32;98266.80;;;7.60
67822;BMP180;54434;50.096;20.082;2023-02-19T08:27:26;98267.20;;;7.60
67822;BMP180;54434;50.096;20.082;2023-02-19T08:30:06;98270.20;;;7.70
67822;BMP180;54434;50.096;20.082;2023-02-19T08:32:45;98274.80;;;7.70
67822;BMP180;54434;50.096;20.082;2023-02-19T08:35:21;98277.00;;;7.80
67822;BMP180;54434;50.096;20.082;2023-02-19T08:38:00;98283.40;;;7.90
67822;BMP180;54434;50.096;20.082;2023-02-19T08:40:39;98284.00;;;7.90
67822;BMP180;54434;50.096;20.082;2023-02-19T08:43:18;98283.20;;;8.00
67822;BMP180;54434;50.096;20.082;2023-02-19T08:45:56;98280.20;;;8.00
67822;BMP180;54434;50.096;20.082;2023-02-19T08:48:32;98281.60;;;8.00
67822;BMP180;54434;50.096;20.082;2023-02-19T08:51:11;98278.00;;;8.00
67822;BMP180;54434;50.096;20.082;2023-02-19T08:53:49;98284.80;;;8.00
67822;BMP180;54434;50.096;20.082;2023-02-19T08:56:25;98284.80;;;8.00
67822;BMP180;54434;50.096;20.082;2023-02-19T08:59:02;98284.20;;;8.00
67822;BMP180;54434;50.096;20.082;2023-02-19T09:01:38;98286.20;;;7.90
67822;BMP180;54434;50.096;20.082;2023-02-19T09:04:15;98285.80;;;7.90
67822;BMP180;54434;50.096;20.082;2023-02-19T09:06:52;98285.20;;;7.90
67822;BMP180;54434;50.096;20.082;2023-02-19T09:09:28;98289.00;;;7.88
67822;BMP180;54434;50.096;20.082;2023-02-19T09:12:07;98289.20;;;7.80
67822;BMP180;54434;50.096;20.082;2023-02-19T09:14:44;98292.00;;;7.80
67822;BMP180;54434;50.096;20.082;2023-02-19T09:17:20;98289.40;;;7.80
67822;BMP180;54434;50.096;20.082;2023-02-19T09:19:57;98301.20;;;7.80
67822;BMP180;54434;50.096;20.082;2023-02-19T09:22:33;98295.40;;;7.80
67822;BMP180;54434;50.096;20.082;2023-02-19T09:25:10;98292.80;;;7.76
67822;BMP180;54434;50.096;20.082;2023-02-19T09:27:47;98295.60;;;7.70
67822;BMP180;54434;50.096;20.082;2023-02-19T09:30:24;98290.40;;;7.70
67822;BMP180;54434;50.096;20.082;2023-02-19T09:33:00;98293.20;;;7.70
67822;BMP180;54434;50.096;20.082;2023-02-19T09:35:40;98292.40;;;7.60
67822;BMP180;54434;50.096;20.082;2023-02-19T09:38:16;98296.40;;;7.60
67822;BMP180;54434;50.096;20.082;2023-02-19T09:40:53;98298.00;;;7.60
67822;BMP180;54434;50.096;20.082;2023-02-19T09:43:32;98296.20;;;7.50
67822;BMP180;54434;50.096;20.082;2023-02-19T09:46:30;98298.40;;;7.50
67822;BMP180;54434;50.096;20.082;2023-02-19T09:49:16;98301.80;;;7.50
67822;BMP180;54434;50.096;20.082;2023-02-19T09:52:01;98309.60;;;7.50
67822;BMP180;54434;50.096;20.082;2023-02-19T09:54:40;98310.40;;;7.44
67822;BMP180;54434;50.096;20.082;2023-02-19T09:57:21;98310.00;;;7.40
67822;BMP180;54434;50.096;20.082;2023-02-19T10:00:06;98315.20;;;7.40
67822;BMP180;54434;50.096;20.082;2023-02-19T10:02:52;98311.20;;;7.40
67822;BMP180;54434;50.096;20.082;2023-02-19T10:05:30;98315.40;;;7.40
67822;BMP180;54434;50.096;20.082;2023-02-19T10:08:14;98312.40;;;7.30
67822;BMP180;54434;50.096;20.082;2023-02-19T10:10:53;98312.60;;;7.20
67822;BMP180;54434;50.096;20.082;2023-02-19T10:13:36;98318.80;;;7.10
67822;BMP180;54434;50.096;20.082;2023-02-19T10:16:20;98316.20;;;7.10
67822;BMP180;54434;50.096;20.082;2023-02-19T10:18:57;98323.40;;;7.00
67822;BMP180;54434;50.096;20.082;2023-02-19T10:21:34;98324.20;;;7.00
67822;BMP180;54434;50.096;20.082;2023-02-19T10:24:23;98325.40;;;6.90
67822;BMP180;54434;50.096;20.082;2023-02-19T10:27:00;98333.60;;;6.90
67822;BMP180;54434;50.096;20.082;2023-02-19T10:29:37;98338.00;;;6.80
67822;BMP180;54434;50.096;20.082;2023-02-19T10:32:21;98348.00;;;6.70
67822;BMP180;54434;50.096;20.082;2023-02-19T10:35:18;98352.00;;;6.60
67822;BMP180;54434;50.096;20.082;2023-02-19T10:37:55;98360.60;;;6.40
67822;BMP180;54434;50.096;20.082;2023-02-19T10:40:32;98361.80;;;6.40
67822;BMP180;54434;50.096;20.082;2023-02-19T10:43:23;98367.60;;;6.30
67822;BMP180;54434;50.096;20.082;2023-02-19T10:46:19;98373.80;;;6.20
67822;BMP180;54434;50.096;20.082;2023-02-19T10:49:00;98379.00;;;6.10
67822;BMP180;54434;50.096;20.082;2023-02-19T10:51:40;98380.20;;;6.00
67822;BMP180;54434;50.096;20.082;2023-02-19T10:54:25;98385.00;;;5.80
67822;BMP180;54434;50.096;20.082;2023-02-19T10:57:28;98389.60;;;5.70
67822;BMP180;54434;50.096;20.082;2023-02-19T11:00:23;98395.40;;;5.52
67822;BMP180;54434;50.096;20.082;2023-02-19T11:03:23;98396.80;;;5.40
67822;BMP180;54434;50.096;20.082;2023-02-19T11:06:06;98401.60;;;5.30
67822;BMP180;54434;50.096;20.082;2023-02-19T11:08:56;98398.40;;;5.14
67822;BMP180;54434;50.096;20.082;2023-02-19T11:11:39;98403.60;;;5.10
67822;BMP180;54434;50.096;20.082;2023-02-19T11:14:23;98410.20;;;5.00
67822;BMP180;54434;50.096;20.082;2023-02-19T11:17:02;98415.00;;;4.92
67822;BMP180;54434;50.096;20.082;2023-02-19T11:19:43;98421.40;;;4.88
67822;BMP180;54434;50.096;20.082;2023-02-19T11:22:34;98419.80;;;4.80
67822;BMP180;54434;50.096;20.082;2023-02-19T11:25:24;98423.60;;;4.72
67822;BMP180;54434;50.096;20.082;2023-02-19T11:28:06;98423.80;;;4.68
67822;BMP180;54434;50.096;20.082;2023-02-19T11:30:45;98421.20;;;4.60
67822;BMP180;54434;50.096;20.082;2023-02-19T11:33:31;98423.80;;;4.50
67822;BMP180;54434;50.096;20.082;2023-02-19T11:39:25;98432.60;;;4.40
67822;BMP180;54434;50.096;20.082;2023-02-19T11:42:31;98433.80;;;4.40
67822;BMP180;54434;50.096;20.082;2023-02-19T11:45:32;98435.20;;;4.40
67822;BMP180;54434;50.096;20.082;2023-02-19T11:49:06;98446.60;;;4.50
67822;BMP180;54434;50.096;20.082;2023-02-19T11:52:10;98444.60;;;4.44
67822;BMP180;54434;50.096;20.082;2023-02-19T11:55:05;98448.20;;;4.48
67822;BMP180;54434;50.096;20.082;2023-02-19T11:57:50;98453.60;;;4.50
67822;BMP180;54434;50.096;20.082;2023-02-19T12:00:32;98462.20;;;4.50
67822;BMP180;54434;50.096;20.082;2023-02-19T12:03:45;98468.40;;;4.50
67822;BMP180;54434;50.096;20.082;2023-02-19T12:06:33;98479.80;;;4.50
67822;BMP180;54434;50.096;20.082;2023-02-19T12:09:43;98479.00;;;4.50
67822;BMP180;54434;50.096;20.082;2023-02-19T12:12:40;98475.80;;;4.60
67822;BMP180;54434;50.096;20.082;2023-02-19T12:15:54;98474.00;;;4.70
67822;BMP180;54434;50.096;20.082;2023-02-19T12:19:05;98480.00;;;4.84
67822;BMP180;54434;50.096;20.082;2023-02-19T12:22:15;98494.60;;;4.98
67822;BMP180;54434;50.096;20.082;2023-02-19T12:25:45;98491.60;;;5.00
67822;BMP180;54434;50.096;20.082;2023-02-19T12:32:43;98502.20;;;5.10
67822;BMP180;54434;50.096;20.082;2023-02-19T12:35:54;98511.60;;;5.08
67822;BMP180;54434;50.096;20.082;2023-02-19T12:38:43;98521.60;;;5.00
67822;BMP180;54434;50.096;20.082;2023-02-19T12:41:34;98522.80;;;5.00
67822;BMP180;54434;50.096;20.082;2023-02-19T12:44:21;98526.60;;;5.00
67822;BMP180;54434;50.096;20.082;2023-02-19T12:47:05;98525.20;;;5.00
67822;BMP180;54434;50.096;20.082;2023-02-19T12:49:49;98527.00;;;5.00
67822;BMP180;54434;50.096;20.082;2023-02-19T12:52:35;98521.20;;;5.00
67822;BMP180;54434;50.096;20.082;2023-02-19T12:55:26;98526.20;;;5.10
67822;BMP180;54434;50.096;20.082;2023-02-19T12:58:08;98521.40;;;5.10
67822;BMP180;54434;50.096;20.082;2023-02-19T13:00:53;98530.60;;;5.10
67822;BMP180;54434;50.096;20.082;2023-02-19T13:03:38;98533.60;;;5.18
67822;BMP180;54434;50.096;20.082;2023-02-19T13:06:32;98539.40;;;5.20
67822;BMP180;54434;50.096;20.082;2023-02-19T13:09:16;98531.00;;;5.24
67822;BMP180;54434;50.096;20.082;2023-02-19T13:12:03;98531.00;;;5.30
67822;BMP180;54434;50.096;20.082;2023-02-19T13:14:46;98529.20;;;5.32
67822;BMP180;54434;50.096;20.082;2023-02-19T13:17:33;98529.40;;;5.38
67822;BMP180;54434;50.096;20.082;2023-02-19T13:20:26;98529.80;;;5.40
67822;BMP180;54434;50.096;20.082;2023-02-19T13:23:12;98540.20;;;5.50
67822;BMP180;54434;50.096;20.082;2023-02-19T13:26:34;98541.00;;;5.50
67822;BMP180;54434;50.096;20.082;2023-02-19T13:29:45;98546.80;;;5.52
67822;BMP180;54434;50.096;20.082;2023-02-19T13:32:54;98557.20;;;5.50
67822;BMP180;54434;50.096;20.082;2023-02-19T13:36:03;98559.00;;;5.46
67822;BMP180;54434;50.096;20.082;2023-02-19T13:38:46;98566.40;;;5.40
67822;BMP180;54434;50.096;20.082;2023-02-19T13:41:28;98570.60;;;5.44
67822;BMP180;54434;50.096;20.082;2023-02-19T13:44:17;98575.80;;;5.40
67822;BMP180;54434;50.096;20.082;2023-02-19T13:46:54;98578.60;;;5.44
67822;BMP180;54434;50.096;20.082;2023-02-19T13:49:50;98579.20;;;5.50
67822;BMP180;54434;50.096;20.082;2023-02-19T13:52:45;98586.00;;;5.50
67822;BMP180;54434;50.096;20.082;2023-02-19T13:56:02;98595.00;;;5.46
67822;BMP180;54434;50.096;20.082;2023-02-19T13:58:57;98597.20;;;5.40
67822;BMP180;54434;50.096;20.082;2023-02-19T14:02:20;98601.40;;;5.40
67822;BMP180;54434;50.096;20.082;2023-02-19T14:05:05;98605.00;;;5.30
67822;BMP180;54434;50.096;20.082;2023-02-19T14:08:00;98614.00;;;5.30
67822;BMP180;54434;50.096;20.082;2023-02-19T14:10:58;98613.60;;;5.20
67822;BMP180;54434;50.096;20.082;2023-02-19T14:14:00;98618.40;;;5.20
67822;BMP180;54434;50.096;20.082;2023-02-19T14:17:25;98624.60;;;5.12
67822;BMP180;54434;50.096;20.082;2023-02-19T14:20:42;98623.20;;;5.10
67822;BMP180;54434;50.096;20.082;2023-02-19T14:23:24;98644.40;;;5.10
67822;BMP180;54434;50.096;20.082;2023-02-19T14:26:06;98647.60;;;5.10
67822;BMP180;54434;50.096;20.082;2023-02-19T14:28:48;98648.40;;;5.02
67822;BMP180;54434;50.096;20.082;2023-02-19T14:31:35;98655.60;;;5.00
67822;BMP180;54434;50.096;20.082;2023-02-19T14:34:21;98661.00;;;5.00
67822;BMP180;54434;50.096;20.082;2023-02-19T14:37:02;98664.60;;;4.90
67822;BMP180;54434;50.096;20.082;2023-02-19T14:39:42;98670.40;;;4.90
67822;BMP180;54434;50.096;20.082;2023-02-19T14:42:25;98679.40;;;4.90
67822;BMP180;54434;50.096;20.082;2023-02-19T14:45:12;98679.80;;;4.90
67822;BMP180;54434;50.096;20.082;2023-02-19T14:47:53;98690.80;;;4.80
67822;BMP180;54434;50.096;20.082;2023-02-19T14:50:35;98700.00;;;4.80
67822;BMP180;54434;50.096;20.082;2023-02-19T14:53:15;98705.80;;;4.80
67822;BMP180;54434;50.096;20.082;2023-02-19T14:55:54;98710.80;;;4.74
67822;BMP180;54434;50.096;20.082;2023-02-19T14:58:34;98716.20;;;4.70
67822;BMP180;54434;50.096;20.082;2023-02-19T15:01:29;98719.60;;;4.70
67822;BMP180;54434;50.096;20.082;2023-02-19T15:04:17;98725.20;;;4.60
67822;BMP180;54434;50.096;20.082;2023-02-19T15:06:58;98729.00;;;4.60
67822;BMP180;54434;50.096;20.082;2023-02-19T15:09:41;98731.00;;;4.50
67822;BMP180;54434;50.096;20.082;2023-02-19T15:12:23;98737.60;;;4.50
67822;BMP180;54434;50.096;20.082;2023-02-19T15:15:05;98740.40;;;4.50
67822;BMP180;54434;50.096;20.082;2023-02-19T15:17:43;98747.00;;;4.50
67822;BMP180;54434;50.096;20.082;2023-02-19T15:20:25;98743.60;;;4.40
67822;BMP180;54434;50.096;20.082;2023-02-19T15:23:06;98746.80;;;4.40
67822;BMP180;54434;50.096;20.082;2023-02-19T15:25:44;98755.40;;;4.30
67822;BMP180;54434;50.096;20.082;2023-02-19T15:28:34;98759.00;;;4.30
67822;BMP180;54434;50.096;20.082;2023-02-19T15:31:17;98768.60;;;4.20
67822;BMP180;54434;50.096;20.082;2023-02-19T15:33:55;98774.00;;;4.20
67822;BMP180;54434;50.096;20.082;2023-02-19T15:36:35;98775.40;;;4.14
67822;BMP180;54434;50.096;20.082;2023-02-19T15:39:21;98775.20;;;4.10
67822;BMP180;54434;50.096;20.082;2023-02-19T15:42:04;98776.20;;;4.10
67822;BMP180;54434;50.096;20.082;2023-02-19T15:44:50;98775.60;;;4.00
67822;BMP180;54434;50.096;20.082;2023-02-19T15:47:36;98782.60;;;4.00
67822;BMP180;54434;50.096;20.082;2023-02-19T15:50:20;98785.60;;;3.94
67822;BMP180;54434;50.096;20.082;2023-02-19T15:53:05;98795.20;;;3.90